createdAt,value
2018-12-30T00:00:53.153Z,3.90
2018-12-30T00:03:22.185Z,4.20
2018-12-30T00:05:51.562Z,4.00
2018-12-30T00:08:20.619Z,3.80
2018-12-30T00:10:49.535Z,4.17
2018-12-30T00:13:18.207Z,3.80
2018-12-30T00:15:46.917Z,3.60
2018-12-30T00:18:15.804Z,4.33
2018-12-30T00:20:44.865Z,4.20
2018-12-30T00:23:14.206Z,3.60
2018-12-30T00:25:43.062Z,4.50
2018-12-30T00:28:11.740Z,3.93
2018-12-30T00:30:40.348Z,3.87
2018-12-30T00:33:09.027Z,4.47
2018-12-30T00:35:37.817Z,4.30
2018-12-30T00:38:06.752Z,4.13
2018-12-30T00:40:35.394Z,4.00
2018-12-30T00:43:04.330Z,4.43
2018-12-30T00:45:32.950Z,3.97
2018-12-30T00:48:01.570Z,4.33
2018-12-30T00:50:30.154Z,4.03
2018-12-30T00:52:58.836Z,4.10
2018-12-30T00:55:27.478Z,4.43
2018-12-30T00:57:56.084Z,3.63
2018-12-30T01:00:24.838Z,3.93
2018-12-30T01:02:53.413Z,4.40
2018-12-30T01:05:22.200Z,3.97
2018-12-30T01:07:50.851Z,4.53
2018-12-30T01:10:19.538Z,3.60
2018-12-30T01:12:48.251Z,4.20
2018-12-30T01:15:16.967Z,4.03
2018-12-30T01:17:45.668Z,3.23
2018-12-30T01:20:14.561Z,3.60
2018-12-30T01:22:43.145Z,4.23
2018-12-30T01:25:11.861Z,4.03
2018-12-30T01:27:40.456Z,3.93
2018-12-30T01:30:09.211Z,4.27
2018-12-30T01:32:37.792Z,3.77
2018-12-30T01:35:06.585Z,3.57
2018-12-30T01:37:35.230Z,4.07
2018-12-30T01:40:04.397Z,4.77
2018-12-30T01:42:32.974Z,4.10
2018-12-30T01:45:01.558Z,4.57
2018-12-30T01:47:30.181Z,3.83
2018-12-30T01:49:58.761Z,4.47
2018-12-30T01:52:27.402Z,3.50
2018-12-30T01:54:56.018Z,4.17
2018-12-30T01:57:24.593Z,4.30
2018-12-30T01:59:53.605Z,3.87
2018-12-30T02:02:22.256Z,3.80
2018-12-30T02:04:50.905Z,3.93
2018-12-30T02:07:19.542Z,4.43
2018-12-30T02:09:48.115Z,3.73
2018-12-30T02:12:16.818Z,3.73
2018-12-30T02:14:45.397Z,4.03
2018-12-30T02:17:14.033Z,3.33
2018-12-30T02:19:42.649Z,4.00
2018-12-30T02:22:11.305Z,3.40
2018-12-30T02:24:39.921Z,4.53
2018-12-30T02:27:08.520Z,3.07
2018-12-30T02:29:37.209Z,4.03
2018-12-30T02:32:05.897Z,3.40
2018-12-30T02:34:34.594Z,3.30
2018-12-30T02:37:03.233Z,3.47
2018-12-30T02:39:31.810Z,4.67
2018-12-30T02:42:00.519Z,3.80
2018-12-30T02:44:29.141Z,3.53
2018-12-30T02:46:57.794Z,3.40
2018-12-30T02:49:26.473Z,4.10
2018-12-30T02:51:55.144Z,3.73
2018-12-30T02:54:23.717Z,3.60
2018-12-30T02:56:52.338Z,3.40
2018-12-30T02:59:20.934Z,3.60
2018-12-30T03:01:49.714Z,3.57
2018-12-30T03:04:18.358Z,3.30
2018-12-30T03:06:46.991Z,3.10
2018-12-30T03:09:15.585Z,3.33
2018-12-30T03:11:44.211Z,3.33
2018-12-30T03:14:12.808Z,3.20
2018-12-30T03:16:41.589Z,3.47
2018-12-30T03:19:10.232Z,3.87
2018-12-30T03:21:38.879Z,3.63
2018-12-30T03:24:07.515Z,3.40
2018-12-30T03:26:36.221Z,3.33
2018-12-30T03:29:04.780Z,3.10
2018-12-30T03:31:33.418Z,3.60
2018-12-30T03:34:02.064Z,3.40
2018-12-30T03:36:30.738Z,3.77
2018-12-30T03:38:59.346Z,3.97
2018-12-30T03:41:28.098Z,3.40
2018-12-30T03:43:56.682Z,3.07
2018-12-30T03:46:25.251Z,3.70
2018-12-30T03:48:53.933Z,3.27
2018-12-30T03:51:22.504Z,3.03
2018-12-30T03:53:51.160Z,3.20
2018-12-30T03:56:19.738Z,2.87
2018-12-30T03:58:48.310Z,3.43
2018-12-30T04:01:17.063Z,3.47
2018-12-30T04:03:45.827Z,3.17
2018-12-30T04:06:14.509Z,2.90
2018-12-30T04:08:43.109Z,2.90
2018-12-30T04:11:11.820Z,2.47
2018-12-30T04:13:40.614Z,3.37
2018-12-30T04:16:09.341Z,2.93
2018-12-30T04:18:38.012Z,3.00
2018-12-30T04:21:06.628Z,3.40
2018-12-30T04:23:35.301Z,3.23
2018-12-30T04:26:03.903Z,3.17
2018-12-30T04:28:32.599Z,3.33
2018-12-30T04:31:01.171Z,2.93
2018-12-30T04:33:29.866Z,3.27
2018-12-30T04:35:58.430Z,3.20
2018-12-30T04:38:27.111Z,3.33
2018-12-30T04:40:55.693Z,3.00
2018-12-30T04:43:24.273Z,3.63
2018-12-30T04:45:52.921Z,3.23
2018-12-30T04:48:21.595Z,3.50
2018-12-30T04:50:50.194Z,3.13
2018-12-30T04:53:18.847Z,3.97
2018-12-30T04:55:47.419Z,3.93
2018-12-30T04:58:15.998Z,3.70
2018-12-30T05:00:45.008Z,4.13
2018-12-30T05:03:13.646Z,3.27
2018-12-30T05:05:42.241Z,3.73
2018-12-30T05:08:10.950Z,3.77
2018-12-30T05:10:39.609Z,4.10
2018-12-30T05:13:08.281Z,2.83
2018-12-30T05:15:36.866Z,3.50
2018-12-30T05:18:05.511Z,3.77
2018-12-30T05:20:34.214Z,2.87
2018-12-30T05:23:02.789Z,2.80
2018-12-30T05:25:31.440Z,4.07
2018-12-30T05:28:00.103Z,3.30
2018-12-30T05:30:28.687Z,3.30
2018-12-30T05:32:57.302Z,3.10
2018-12-30T05:35:25.937Z,3.27
2018-12-30T05:37:54.512Z,3.47
2018-12-30T05:40:23.199Z,3.57
2018-12-30T05:42:51.801Z,3.47
2018-12-30T05:45:20.498Z,3.53
2018-12-30T05:47:49.136Z,3.40
2018-12-30T05:50:17.801Z,3.30
2018-12-30T05:52:46.429Z,3.30
2018-12-30T05:55:15.066Z,3.20
2018-12-30T05:57:43.700Z,3.50
2018-12-30T06:00:12.448Z,3.00
2018-12-30T06:02:41.021Z,3.63
2018-12-30T06:05:09.664Z,3.33
2018-12-30T06:07:38.290Z,3.33
2018-12-30T06:10:07.047Z,3.27
2018-12-30T06:12:35.669Z,3.27
2018-12-30T06:15:05.738Z,3.97
2018-12-30T06:17:34.414Z,2.83
2018-12-30T06:20:03.293Z,2.93
2018-12-30T06:22:31.889Z,3.60
2018-12-30T06:25:00.513Z,3.77
2018-12-30T06:27:29.095Z,3.57
2018-12-30T06:29:57.734Z,3.53
2018-12-30T06:32:26.300Z,3.23
2018-12-30T06:34:54.920Z,3.43
2018-12-30T06:37:23.625Z,3.30
2018-12-30T06:39:52.247Z,3.10
2018-12-30T06:42:20.825Z,3.40
2018-12-30T06:44:49.414Z,3.67
2018-12-30T06:47:18.051Z,3.03
2018-12-30T06:49:46.737Z,3.43
2018-12-30T06:52:15.359Z,4.07
2018-12-30T06:54:43.941Z,3.43
2018-12-30T06:57:12.578Z,3.57
2018-12-30T06:59:41.239Z,3.03
2018-12-30T07:02:09.813Z,3.30
2018-12-30T07:04:38.428Z,3.13
2018-12-30T07:07:07.099Z,3.30
2018-12-30T07:09:35.807Z,3.77
2018-12-30T07:12:04.550Z,3.20
2018-12-30T07:14:33.122Z,3.60
2018-12-30T07:17:01.813Z,3.17
2018-12-30T07:19:30.458Z,3.60
2018-12-30T07:21:59.025Z,3.30
2018-12-30T07:24:27.657Z,3.00
2018-12-30T07:26:56.293Z,3.43
2018-12-30T07:29:24.956Z,3.53
2018-12-30T07:31:53.668Z,3.20
2018-12-30T07:34:22.285Z,3.23
2018-12-30T07:36:50.866Z,3.40
2018-12-30T07:39:19.496Z,2.93
2018-12-30T07:41:48.076Z,4.07
2018-12-30T07:44:16.766Z,3.87
2018-12-30T07:46:45.389Z,3.47
2018-12-30T07:49:13.989Z,4.20
2018-12-30T07:51:42.626Z,3.67
2018-12-30T07:54:11.201Z,3.37
2018-12-30T07:56:39.840Z,4.37
2018-12-30T07:59:08.468Z,3.80
2018-12-30T08:01:37.081Z,3.33
2018-12-30T08:04:08.587Z,4.20
2018-12-30T08:06:37.359Z,3.53
2018-12-30T08:09:07.379Z,3.70
2018-12-30T08:11:36.077Z,3.30
2018-12-30T08:14:04.793Z,3.40
2018-12-30T08:16:33.438Z,3.30
2018-12-30T08:19:02.116Z,3.00
2018-12-30T08:21:30.698Z,3.07
2018-12-30T08:23:59.389Z,3.10
2018-12-30T08:26:27.969Z,3.00
2018-12-30T08:28:56.598Z,3.50
2018-12-30T08:31:25.429Z,3.43
2018-12-30T08:33:54.052Z,3.00
2018-12-30T08:36:22.620Z,3.30
2018-12-30T08:38:51.403Z,3.10
2018-12-30T08:41:19.980Z,3.23
2018-12-30T08:43:48.598Z,3.20
2018-12-30T08:46:17.214Z,3.83
2018-12-30T08:48:45.789Z,2.93
2018-12-30T08:51:14.473Z,2.73
2018-12-30T08:53:43.069Z,3.60
2018-12-30T08:56:11.721Z,2.90
2018-12-30T08:58:40.297Z,2.73
2018-12-30T09:01:08.925Z,2.60
2018-12-30T09:03:37.502Z,2.50
2018-12-30T09:08:41.508Z,3.57
2018-12-30T09:11:10.498Z,3.00
2018-12-30T09:13:39.101Z,3.53
2018-12-30T09:16:07.677Z,2.70
2018-12-30T09:18:36.306Z,2.93
2018-12-30T09:21:05.303Z,2.43
2018-12-30T09:23:37.591Z,2.93
2018-12-30T09:26:04.305Z,2.87
2018-12-30T09:28:32.879Z,3.03
2018-12-30T09:31:01.493Z,2.67
2018-12-30T09:33:30.077Z,2.23
2018-12-30T09:35:58.696Z,2.60
2018-12-30T09:38:27.326Z,2.50
2018-12-30T09:40:55.939Z,3.03
2018-12-30T09:43:24.552Z,2.87
2018-12-30T09:45:53.206Z,2.77
2018-12-30T09:48:21.890Z,2.77
2018-12-30T09:50:50.532Z,2.60
2018-12-30T09:53:19.208Z,3.23
2018-12-30T09:55:47.785Z,2.27
2018-12-30T09:58:16.409Z,2.70
2018-12-30T10:00:44.986Z,2.30
2018-12-30T10:03:13.574Z,2.70
2018-12-30T10:05:42.352Z,2.80
2018-12-30T10:08:11.060Z,2.30
2018-12-30T10:10:39.635Z,3.00
2018-12-30T10:13:08.430Z,2.70
2018-12-30T10:15:37.010Z,3.00
2018-12-30T10:18:05.574Z,2.90
2018-12-30T10:20:34.252Z,2.73
2018-12-30T10:23:02.828Z,2.67
2018-12-30T10:25:31.451Z,2.40
2018-12-30T10:28:00.099Z,2.93
2018-12-30T10:30:28.722Z,2.47
2018-12-30T10:32:57.393Z,2.40
2018-12-30T10:35:26.174Z,2.77
2018-12-30T10:37:54.766Z,2.53
2018-12-30T10:40:23.404Z,2.30
2018-12-30T10:42:56.495Z,2.20
2018-12-30T10:45:25.135Z,2.47
2018-12-30T10:47:57.027Z,2.70
2018-12-30T10:50:25.715Z,2.40
2018-12-30T10:52:54.311Z,2.37
2018-12-30T10:55:22.928Z,2.60
2018-12-30T10:57:51.521Z,2.67
2018-12-30T11:00:20.285Z,2.00
2018-12-30T11:02:48.855Z,2.33
2018-12-30T11:05:17.507Z,2.60
2018-12-30T11:07:46.133Z,2.93
2018-12-30T11:10:14.795Z,2.50
2018-12-30T11:12:43.377Z,2.90
2018-12-30T11:15:18.060Z,2.43
2018-12-30T11:17:46.800Z,2.50
2018-12-30T11:20:20.918Z,3.20
2018-12-30T11:22:49.486Z,2.10
2018-12-30T11:25:30.124Z,2.43
2018-12-30T11:27:58.817Z,2.77
2018-12-30T11:30:27.556Z,2.30
2018-12-30T11:32:56.146Z,2.80
2018-12-30T11:35:25.048Z,3.13
2018-12-30T11:37:53.691Z,2.03
2018-12-30T11:40:22.359Z,2.63
2018-12-30T11:42:50.959Z,1.90
2018-12-30T11:45:19.611Z,2.50
2018-12-30T11:47:48.320Z,2.70
2018-12-30T11:50:17.009Z,2.67
2018-12-30T11:52:45.616Z,2.87
2018-12-30T11:55:14.205Z,2.83
2018-12-30T11:57:42.792Z,2.70
2018-12-30T12:00:11.504Z,2.40
2018-12-30T12:02:40.113Z,2.37
2018-12-30T12:05:08.834Z,2.80
2018-12-30T12:07:37.480Z,2.10
2018-12-30T12:10:06.479Z,2.87
2018-12-30T12:12:35.679Z,2.60
2018-12-30T12:15:06.767Z,2.43
2018-12-30T12:17:35.414Z,2.20
2018-12-30T12:20:05.193Z,2.40
2018-12-30T12:22:33.916Z,2.40
2018-12-30T12:25:02.533Z,2.87
2018-12-30T12:27:31.269Z,2.87
2018-12-30T12:30:00.085Z,2.80
2018-12-30T12:32:28.861Z,2.93
2018-12-30T12:34:57.524Z,2.57
2018-12-30T12:37:27.120Z,2.20
2018-12-30T12:39:55.805Z,2.73
2018-12-30T12:42:24.424Z,2.50
2018-12-30T12:44:53.038Z,2.40
2018-12-30T12:47:21.617Z,2.70
2018-12-30T12:49:50.300Z,2.77
2018-12-30T12:52:19.061Z,3.07
2018-12-30T12:54:50.786Z,3.50
2018-12-30T12:57:19.462Z,2.90
2018-12-30T12:59:48.169Z,2.80
2018-12-30T13:02:16.793Z,3.07
2018-12-30T13:04:45.428Z,3.37
2018-12-30T13:07:14.033Z,2.70
2018-12-30T13:09:42.597Z,3.00
2018-12-30T13:12:11.214Z,3.17
2018-12-30T13:14:39.800Z,3.10
2018-12-30T13:17:08.418Z,3.20
2018-12-30T13:19:37.054Z,2.93
2018-12-30T13:22:05.724Z,2.60
2018-12-30T13:24:39.922Z,3.20
2018-12-30T13:27:04.813Z,3.40
2018-12-30T13:29:33.530Z,3.00
2018-12-30T13:32:02.279Z,3.00
2018-12-30T13:34:30.939Z,2.80
2018-12-30T13:36:59.645Z,3.20
2018-12-30T13:39:28.329Z,3.30
2018-12-30T13:41:56.906Z,2.60
2018-12-30T13:44:25.616Z,2.90
2018-12-30T13:46:54.262Z,3.37
2018-12-30T13:49:22.945Z,2.80
2018-12-30T13:51:53.183Z,3.10
2018-12-30T13:54:22.049Z,3.07
2018-12-30T13:56:50.736Z,3.17
2018-12-30T13:59:19.448Z,3.10
2018-12-30T14:01:48.099Z,3.10
2018-12-30T14:04:16.717Z,3.20
2018-12-30T14:06:45.428Z,3.17
2018-12-30T14:09:14.047Z,3.17
2018-12-30T14:11:42.687Z,3.03
2018-12-30T14:14:11.396Z,3.10
2018-12-30T14:16:40.031Z,3.77
2018-12-30T14:19:08.717Z,3.27
2018-12-30T14:21:37.298Z,3.80
2018-12-30T14:24:05.939Z,3.40
2018-12-30T14:29:04.694Z,3.60
2018-12-30T14:31:33.330Z,3.70
2018-12-30T14:34:02.030Z,3.77
2018-12-30T14:36:30.676Z,3.90
2018-12-30T14:38:59.294Z,3.23
2018-12-30T14:41:27.949Z,3.77
2018-12-30T14:43:56.654Z,3.40
2018-12-30T14:46:33.610Z,4.20
2018-12-30T14:48:55.600Z,3.80
2018-12-30T14:51:24.182Z,3.63
2018-12-30T14:53:52.779Z,4.57
2018-12-30T14:56:21.488Z,3.97
2018-12-30T14:58:50.136Z,4.33
2018-12-30T15:01:18.848Z,4.13
2018-12-30T15:03:47.495Z,4.40
2018-12-30T15:08:41.969Z,3.93
2018-12-30T15:11:10.605Z,4.00
2018-12-30T15:13:39.246Z,3.40
2018-12-30T15:16:07.905Z,3.63
2018-12-30T15:18:36.508Z,3.90
2018-12-30T15:21:05.226Z,4.20
2018-12-30T15:23:33.839Z,5.00
2018-12-30T15:26:02.657Z,4.83
2018-12-30T15:28:31.338Z,4.40
2018-12-30T15:30:59.987Z,6.03
2018-12-30T15:33:28.677Z,5.40
2018-12-30T15:35:58.325Z,4.60
2018-12-30T15:38:26.963Z,5.37
2018-12-30T15:40:55.688Z,4.77
2018-12-30T15:43:24.578Z,4.77
2018-12-30T15:45:53.159Z,5.30
2018-12-30T15:48:21.962Z,5.27
2018-12-30T15:50:50.589Z,4.83
2018-12-30T15:53:19.211Z,5.43
2018-12-30T15:55:47.885Z,4.80
2018-12-30T15:58:16.575Z,5.23
2018-12-30T16:00:45.276Z,5.20
2018-12-30T16:03:13.855Z,5.33
2018-12-30T16:05:42.523Z,5.47
2018-12-30T16:08:11.161Z,6.40
2018-12-30T16:10:39.811Z,7.03
2018-12-30T16:13:08.528Z,7.53
2018-12-30T16:15:37.162Z,9.27
2018-12-30T16:18:05.878Z,8.60
2018-12-30T16:20:36.517Z,9.67
2018-12-30T16:23:05.288Z,9.43
2018-12-30T16:25:33.888Z,8.57
2018-12-30T16:28:02.576Z,8.90
2018-12-30T16:30:32.240Z,9.90
2018-12-30T16:33:00.859Z,11.80
2018-12-30T16:35:29.452Z,12.53
2018-12-30T16:37:58.060Z,15.07
2018-12-30T16:40:26.720Z,14.87
2018-12-30T16:42:58.965Z,15.33
2018-12-30T16:45:28.597Z,16.10
2018-12-30T16:47:57.225Z,16.00
2018-12-30T16:50:25.872Z,17.93
2018-12-30T16:52:54.569Z,18.57
2018-12-30T16:55:25.140Z,19.60
2018-12-30T16:57:53.774Z,20.43
2018-12-30T17:00:22.467Z,20.27
2018-12-30T17:02:51.054Z,20.30
2018-12-30T17:05:19.674Z,22.40
2018-12-30T17:07:48.378Z,21.77
2018-12-30T17:10:17.913Z,22.60
2018-12-30T17:12:46.664Z,23.07
2018-12-30T17:15:15.316Z,23.37
2018-12-30T17:17:43.952Z,23.77
2018-12-30T17:20:12.605Z,23.13
2018-12-30T17:22:41.249Z,23.97
2018-12-30T17:25:09.944Z,24.27
2018-12-30T17:27:38.521Z,23.97
2018-12-30T17:30:09.577Z,24.60
2018-12-30T17:32:38.154Z,25.80
2018-12-30T17:35:06.797Z,25.73
2018-12-30T17:37:35.509Z,25.43
2018-12-30T17:40:04.929Z,24.90
2018-12-30T17:42:33.604Z,25.70
2018-12-30T17:45:02.222Z,24.70
2018-12-30T17:47:30.805Z,24.93
2018-12-30T17:49:59.425Z,24.83
2018-12-30T17:52:28.079Z,24.97
2018-12-30T17:54:56.775Z,26.20
2018-12-30T17:57:25.348Z,23.93
2018-12-30T17:59:53.985Z,26.40
2018-12-30T18:02:22.737Z,26.30
2018-12-30T18:04:51.389Z,24.93
2018-12-30T18:07:20.110Z,26.00
2018-12-30T18:09:48.717Z,25.57
2018-12-30T18:12:17.298Z,24.80
2018-12-30T18:14:45.977Z,24.77
2018-12-30T18:17:14.627Z,25.07
2018-12-30T18:19:43.424Z,26.83
2018-12-30T18:22:12.065Z,26.50
2018-12-30T18:24:40.693Z,26.27
2018-12-30T18:27:09.273Z,27.57
2018-12-30T18:29:38.060Z,26.90
2018-12-30T18:32:06.677Z,29.43
2018-12-30T18:34:35.443Z,28.23
2018-12-30T18:37:04.228Z,27.63
2018-12-30T18:39:32.842Z,28.27
2018-12-30T18:42:01.479Z,26.97
2018-12-30T18:44:30.113Z,28.73
2018-12-30T18:46:58.686Z,28.83
2018-12-30T18:49:27.374Z,28.20
2018-12-30T18:51:56.002Z,29.30
2018-12-30T18:54:24.739Z,30.13
2018-12-30T18:56:53.489Z,29.13
2018-12-30T18:59:22.092Z,28.50
2018-12-30T19:01:50.741Z,27.17
2018-12-30T19:04:19.355Z,27.53
2018-12-30T19:06:47.973Z,26.20
2018-12-30T19:09:16.636Z,25.47
2018-12-30T19:11:45.336Z,26.53
2018-12-30T19:14:13.917Z,25.97
2018-12-30T19:16:43.762Z,26.67
2018-12-30T19:19:12.451Z,28.43
2018-12-30T19:21:41.028Z,28.43
2018-12-30T19:24:09.720Z,28.63
2018-12-30T19:26:38.357Z,27.50
2018-12-30T19:29:07.083Z,27.60
2018-12-30T19:31:35.796Z,25.83
2018-12-30T19:34:04.671Z,26.83
2018-12-30T19:36:34.221Z,27.90
2018-12-30T19:39:02.800Z,26.83
2018-12-30T19:41:31.446Z,27.57
2018-12-30T19:44:00.096Z,27.03
2018-12-30T19:46:28.706Z,25.67
2018-12-30T19:48:57.276Z,26.97
2018-12-30T19:51:25.897Z,25.87
2018-12-30T19:53:54.481Z,27.37
2018-12-30T19:56:23.135Z,25.63
2018-12-30T19:58:51.812Z,26.20
2018-12-30T20:01:20.567Z,26.20
2018-12-30T20:03:49.188Z,25.60
2018-12-30T20:06:17.809Z,26.67
2018-12-30T20:08:46.383Z,26.53
2018-12-30T20:11:15.172Z,26.73
2018-12-30T20:13:43.760Z,26.43
2018-12-30T20:16:12.359Z,25.97
2018-12-30T20:18:41.061Z,27.20
2018-12-30T20:21:09.657Z,27.90
2018-12-30T20:23:38.269Z,28.73
2018-12-30T20:26:06.845Z,28.60
2018-12-30T20:28:35.458Z,27.83
2018-12-30T20:31:05.153Z,28.40
2018-12-30T20:33:33.826Z,28.27
2018-12-30T20:36:02.851Z,28.80
2018-12-30T20:38:31.420Z,29.47
2018-12-30T20:41:00.107Z,30.07
2018-12-30T20:43:28.681Z,29.20
2018-12-30T20:45:57.372Z,30.83
2018-12-30T20:48:26.025Z,31.40
2018-12-30T20:50:54.716Z,31.03
2018-12-30T20:53:23.301Z,30.27
2018-12-30T20:55:52.025Z,30.93
2018-12-30T20:58:20.605Z,31.33
2018-12-30T21:00:49.227Z,31.63
2018-12-30T21:03:17.805Z,32.13
2018-12-30T21:05:46.437Z,31.47
2018-12-30T21:08:15.203Z,31.13
2018-12-30T21:10:44.102Z,31.50
2018-12-30T21:13:13.215Z,32.03
2018-12-30T21:15:41.800Z,32.50
2018-12-30T21:18:10.879Z,30.60
2018-12-30T21:20:39.684Z,30.03
2018-12-30T21:23:08.388Z,30.83
2018-12-30T21:25:37.141Z,29.47
2018-12-30T21:28:05.826Z,32.27
2018-12-30T21:30:34.470Z,30.37
2018-12-30T21:33:03.304Z,31.23
2018-12-30T21:35:31.914Z,32.03
2018-12-30T21:38:00.585Z,31.93
2018-12-30T21:40:29.352Z,31.57
2018-12-30T21:42:57.997Z,32.97
2018-12-30T21:45:26.643Z,32.53
2018-12-30T21:47:55.350Z,32.33
2018-12-30T21:50:24.000Z,32.73
2018-12-30T21:52:52.673Z,32.17
2018-12-30T21:55:21.357Z,32.30
2018-12-30T21:57:49.936Z,32.30
2018-12-30T22:00:18.710Z,30.10
2018-12-30T22:02:47.383Z,32.60
2018-12-30T22:05:15.956Z,31.27
2018-12-30T22:07:44.605Z,30.93
2018-12-30T22:10:17.258Z,30.10
2018-12-30T22:12:43.627Z,29.97
2018-12-30T22:15:12.342Z,27.43
2018-12-30T22:17:40.928Z,28.03
2018-12-30T22:20:09.606Z,27.50
2018-12-30T22:22:38.201Z,26.40
2018-12-30T22:25:06.950Z,25.43
2018-12-30T22:27:35.680Z,25.73
2018-12-30T22:30:05.400Z,25.70
2018-12-30T22:32:34.051Z,26.23
2018-12-30T22:35:02.773Z,24.90
2018-12-30T22:37:31.358Z,24.37
2018-12-30T22:39:59.969Z,23.43
2018-12-30T22:42:32.697Z,22.83
2018-12-30T22:44:58.924Z,22.17
2018-12-30T22:47:27.587Z,23.03
2018-12-30T22:49:56.227Z,21.30
2018-12-30T22:52:24.843Z,22.97
2018-12-30T22:54:53.544Z,21.50
2018-12-30T22:57:22.228Z,20.93
2018-12-30T22:59:50.852Z,21.40
2018-12-30T23:02:19.493Z,19.90
2018-12-30T23:04:48.120Z,21.80
2018-12-30T23:07:16.746Z,21.13
2018-12-30T23:09:45.315Z,20.57
2018-12-30T23:12:14.072Z,19.83
2018-12-30T23:14:42.833Z,19.73
2018-12-30T23:17:11.825Z,19.43
2018-12-30T23:19:40.493Z,19.17
2018-12-30T23:22:09.093Z,18.00
2018-12-30T23:24:37.732Z,17.37
2018-12-30T23:27:06.407Z,18.57
2018-12-30T23:29:35.120Z,18.40
2018-12-30T23:32:03.784Z,18.73
2018-12-30T23:34:32.433Z,18.90
2018-12-30T23:37:01.077Z,18.23
2018-12-30T23:39:29.657Z,17.93
2018-12-30T23:41:58.451Z,17.43
2018-12-30T23:44:27.135Z,18.57
2018-12-30T23:46:55.725Z,18.20
2018-12-30T23:49:24.357Z,17.63
2018-12-30T23:51:52.978Z,17.70
2018-12-30T23:54:21.630Z,17.73
2018-12-30T23:56:50.508Z,18.47
2018-12-30T23:59:19.261Z,18.90
